Time;durP1;ratioP1;P1;durP2;ratioP2;P2;SDS_P1;SDS_P2;PMS_P1;PMS_P2;Temp;Humidity;BMP_temperature;BMP_pressure;BME280_temperature;BME280_humidity;BME280_pressure;Samples;Min_cycle;Max_cycle;Signal;HPM_P1;HPM_P2
2021/07/10 00:01:12;;;;;;;3.08;0.47;;;22.00;88.20;;;;;;5016720;28;20026;-78
2021/07/10 00:03:39;;;;;;;1.15;0.55;;;22.10;88.00;;;;;;5015291;28;20084;-78
2021/07/10 00:06:05;;;;;;;0.82;0.73;;;22.10;87.10;;;;;;5016714;28;20383;-77
2021/07/10 00:08:31;;;;;;;0.65;0.35;;;22.10;86.30;;;;;;5015500;28;20026;-77
2021/07/10 00:10:57;;;;;;;1.77;1.00;;;22.10;85.50;;;;;;5016244;28;20038;-78
2021/07/10 00:13:23;;;;;;;1.05;0.95;;;22.20;85.30;;;;;;5014561;28;20034;-77
2021/07/10 00:15:50;;;;;;;0.60;0.60;;;22.10;86.20;;;;;;5015807;28;20025;-77
2021/07/10 00:18:16;;;;;;;1.35;0.85;;;22.00;86.80;;;;;;5003488;28;20427;-77
2021/07/10 00:20:42;;;;;;;3.03;0.60;;;22.00;86.70;;;;;;4997831;28;20027;-77
2021/07/10 00:23:08;;;;;;;2.83;0.60;;;22.10;85.70;;;;;;5012629;28;21018;-77
2021/07/10 00:25:33;;;;;;;1.02;0.98;;;22.10;84.80;;;;;;5002181;28;20105;-77
2021/07/10 00:27:59;;;;;;;0.85;0.50;;;22.00;86.20;;;;;;5012272;28;20041;-78
2021/07/10 00:30:25;;;;;;;3.60;0.68;;;22.00;86.50;;;;;;5014611;28;20026;-78
2021/07/10 00:32:51;;;;;;;0.60;0.60;;;22.00;86.50;;;;;;5016303;28;20022;-78
2021/07/10 00:35:18;;;;;;;0.93;0.52;;;21.90;86.80;;;;;;5014995;28;20060;-78
2021/07/10 00:37:44;;;;;;;4.18;0.65;;;21.90;86.70;;;;;;4995201;28;20033;-78
2021/07/10 00:40:11;;;;;;;1.60;0.50;;;21.80;86.60;;;;;;4996658;28;20029;-78
2021/07/10 00:42:37;;;;;;;0.60;0.60;;;21.80;86.30;;;;;;5016042;28;20030;-78
2021/07/10 00:45:06;;;;;;;0.50;0.50;;;21.80;86.40;;;;;;5020757;28;20026;-78
2021/07/10 00:47:33;;;;;;;0.55;0.55;;;21.70;85.70;;;;;;5005882;28;20046;-78
2021/07/10 00:49:59;;;;;;;0.47;0.47;;;21.80;85.70;;;;;;5003403;28;20486;-79
2021/07/10 00:52:26;;;;;;;0.82;0.82;;;21.80;85.90;;;;;;5014554;28;20580;-78
2021/07/10 00:54:52;;;;;;;0.47;0.40;;;21.80;85.40;;;;;;5015856;28;21247;-78
2021/07/10 00:57:18;;;;;;;2.80;0.60;;;21.80;85.20;;;;;;5014481;28;20049;-78
2021/07/10 00:59:44;;;;;;;0.40;0.40;;;21.80;85.60;;;;;;5014570;28;20021;-78
2021/07/10 01:02:10;;;;;;;0.55;0.40;;;21.80;85.20;;;;;;5015840;28;20030;-78
2021/07/10 01:04:36;;;;;;;0.95;0.55;;;21.80;85.50;;;;;;5015727;28;20037;-78
2021/07/10 01:07:02;;;;;;;0.60;0.60;;;21.80;85.90;;;;;;5015561;28;20026;-78
2021/07/10 01:09:28;;;;;;;0.68;0.40;;;21.80;85.30;;;;;;5015769;28;20634;-78
2021/07/10 01:11:54;;;;;;;0.68;0.63;;;21.90;85.10;;;;;;5014322;28;20483;-78
2021/07/10 01:14:20;;;;;;;1.75;0.50;;;21.80;84.70;;;;;;5014323;28;20029;-78
2021/07/10 01:16:46;;;;;;;0.98;0.30;;;21.80;85.00;;;;;;5014123;28;20109;-78
2021/07/10 01:19:12;;;;;;;1.90;0.70;;;21.80;84.80;;;;;;5015393;28;20022;-78
2021/07/10 01:21:38;;;;;;;0.40;0.40;;;21.70;84.60;;;;;;5015375;28;20084;-78
2021/07/10 01:24:04;;;;;;;0.45;0.45;;;21.70;85.00;;;;;;5015294;28;20491;-78
2021/07/10 01:26:30;;;;;;;1.55;0.52;;;21.70;85.70;;;;;;5014075;28;20033;-78
2021/07/10 01:28:56;;;;;;;0.77;0.43;;;21.70;84.80;;;;;;5015121;28;20426;-78
2021/07/10 01:31:23;;;;;;;0.73;0.73;;;21.70;85.10;;;;;;5013777;28;20022;-78
2021/07/10 01:33:49;;;;;;;0.50;0.50;;;21.70;84.90;;;;;;5013880;28;20025;-78
2021/07/10 01:36:15;;;;;;;0.50;0.50;;;21.70;85.50;;;;;;5013853;28;20108;-78
2021/07/10 01:38:41;;;;;;;0.40;0.40;;;21.80;85.00;;;;;;5013761;28;20040;-79
2021/07/10 01:41:06;;;;;;;0.40;0.40;;;21.80;84.90;;;;;;5014951;28;20022;-79
2021/07/10 01:43:32;;;;;;;0.98;0.60;;;21.70;84.60;;;;;;5013649;28;20030;-79
2021/07/10 01:45:58;;;;;;;3.00;0.30;;;21.80;85.50;;;;;;5014837;28;20029;-79
2021/07/10 01:48:23;;;;;;;2.00;0.70;;;21.80;84.70;;;;;;5013577;28;20661;-78
2021/07/10 01:50:49;;;;;;;0.40;0.40;;;21.80;85.30;;;;;;5014573;28;20435;-78
2021/07/10 01:53:16;;;;;;;0.90;0.55;;;21.80;85.10;;;;;;5014776;28;20022;-79
2021/07/10 01:55:42;;;;;;;0.70;0.60;;;21.80;85.30;;;;;;5013536;28;20060;-79
2021/07/10 01:58:08;;;;;;;0.60;0.50;;;21.80;85.80;;;;;;5014589;28;20025;-79
2021/07/10 02:00:38;;;;;;;1.05;0.40;;;21.80;86.00;;;;;;5013216;28;20124;-78
2021/07/10 02:03:04;;;;;;;0.57;0.43;;;21.70;85.80;;;;;;5013381;28;20030;-78
2021/07/10 02:05:30;;;;;;;2.05;0.50;;;21.60;85.90;;;;;;5014533;28;20030;-78
2021/07/10 02:07:58;;;;;;;0.43;0.38;;;21.50;85.50;;;;;;5014561;28;20364;-78
2021/07/10 02:10:25;;;;;;;0.47;0.47;;;21.50;85.40;;;;;;5013922;28;20379;-78
2021/07/10 02:12:56;;;;;;;0.38;0.38;;;21.50;85.10;;;;;;5014532;28;20053;-78
2021/07/10 02:15:23;;;;;;;1.55;0.65;;;21.50;84.70;;;;;;5014447;28;20021;-78
2021/07/10 02:17:49;;;;;;;0.82;0.38;;;21.50;84.90;;;;;;5013070;28;20022;-78
2021/07/10 02:20:17;;;;;;;0.85;0.40;;;21.40;85.10;;;;;;5014404;28;20109;-78
2021/07/10 02:22:44;;;;;;;0.80;0.80;;;21.40;85.80;;;;;;5013038;28;20079;-78
2021/07/10 02:25:12;;;;;;;0.88;0.57;;;21.30;86.00;;;;;;5012972;28;20057;-78
2021/07/10 02:27:38;;;;;;;0.50;0.50;;;21.30;86.70;;;;;;5014114;28;20018;-78
2021/07/10 02:30:10;;;;;;;0.43;0.38;;;21.30;86.40;;;;;;5014170;28;20026;-78
2021/07/10 02:35:59;;;;;;;0.50;0.40;;;21.20;87.40;;;;;;5015001;28;19913;-77
2021/07/10 02:38:25;;;;;;;0.60;0.60;;;21.20;87.50;;;;;;5014388;28;20359;-77
2021/07/10 02:40:50;;;;;;;0.50;0.50;;;21.20;87.70;;;;;;5013034;28;20125;-77
2021/07/10 02:43:16;;;;;;;6.18;0.52;;;21.10;88.20;;;;;;5014071;28;20046;-77
2021/07/10 02:45:42;;;;;;;0.63;0.40;;;21.10;88.20;;;;;;5012586;28;20064;-77
2021/07/10 02:48:11;;;;;;;0.70;0.50;;;21.00;89.00;;;;;;5013871;28;20104;-77
2021/07/10 02:50:37;;;;;;;0.30;0.30;;;21.00;89.50;;;;;;5012302;28;20136;-77
2021/07/10 02:53:04;;;;;;;8.68;0.73;;;20.90;90.00;;;;;;5019364;28;20100;-76
2021/07/10 02:55:30;;;;;;;0.40;0.40;;;20.90;90.00;;;;;;5033535;28;20044;-77
2021/07/10 02:57:56;;;;;;;1.52;0.60;;;21.00;89.60;;;;;;5033324;28;20482;-76
2021/07/10 03:00:25;;;;;;;1.80;0.60;;;21.00;88.90;;;;;;5033442;28;20491;-77
2021/07/10 03:02:51;;;;;;;0.77;0.57;;;21.00;89.10;;;;;;5031983;28;20037;-77
2021/07/10 03:05:17;;;;;;;0.43;0.40;;;20.90;90.00;;;;;;5033174;28;20029;-77
2021/07/10 03:07:44;;;;;;;0.60;0.60;;;20.90;90.10;;;;;;5033170;28;20026;-77
2021/07/10 03:10:13;;;;;;;0.88;0.50;;;20.80;90.20;;;;;;5032986;28;20025;-77
2021/07/10 03:12:39;;;;;;;1.55;0.60;;;20.80;90.10;;;;;;5015205;28;20021;-77
2021/07/10 03:15:06;;;;;;;0.63;0.63;;;20.80;90.00;;;;;;5012978;28;20029;-77
2021/07/10 03:17:32;;;;;;;0.60;0.50;;;20.90;90.30;;;;;;5011829;28;20018;-77
2021/07/10 03:19:57;;;;;;;0.65;0.65;;;20.90;89.90;;;;;;5012142;28;20060;-77
2021/07/10 03:22:23;;;;;;;0.43;0.43;;;21.00;89.70;;;;;;5012257;28;20096;-77
2021/07/10 03:24:49;;;;;;;0.50;0.50;;;21.00;90.00;;;;;;5013306;28;20534;-77
2021/07/10 03:27:15;;;;;;;1.02;0.70;;;21.00;89.10;;;;;;5013022;28;20080;-77
2021/07/10 03:29:41;;;;;;;0.40;0.40;;;21.00;89.00;;;;;;5011932;28;20030;-77
2021/07/10 03:32:07;;;;;;;0.85;0.50;;;21.00;89.80;;;;;;5012029;28;20037;-77
2021/07/10 03:34:33;;;;;;;0.60;0.60;;;21.00;89.60;;;;;;5013197;28;20607;-77
2021/07/10 03:36:58;;;;;;;0.93;0.80;;;21.10;89.20;;;;;;5013207;28;20411;-77
2021/07/10 03:39:25;;;;;;;0.50;0.50;;;21.00;89.10;;;;;;5012030;28;20026;-76
2021/07/10 03:41:51;;;;;;;0.60;0.60;;;20.90;89.40;;;;;;5012905;28;20029;-77
2021/07/10 03:44:17;;;;;;;1.60;0.60;;;20.90;89.20;;;;;;5013139;28;20480;-76
2021/07/10 03:46:45;;;;;;;0.63;0.60;;;20.90;89.10;;;;;;5013054;28;20026;-77
2021/07/10 03:49:12;;;;;;;2.00;0.70;;;20.80;89.00;;;;;;5013079;28;20387;-77
2021/07/10 03:51:38;;;;;;;0.88;0.63;;;20.80;89.50;;;;;;5012845;28;20032;-77
2021/07/10 03:54:04;;;;;;;2.05;0.65;;;20.90;89.50;;;;;;5013161;28;20026;-77
2021/07/10 03:56:30;;;;;;;0.60;0.57;;;20.80;89.40;;;;;;5013086;28;20088;-77
2021/07/10 03:58:56;;;;;;;0.73;0.57;;;20.80;89.20;;;;;;5013003;28;20084;-77
2021/07/10 04:01:22;;;;;;;2.13;0.70;;;20.80;89.00;;;;;;5012728;28;20014;-77
2021/07/10 04:03:47;;;;;;;0.50;0.50;;;20.80;89.50;;;;;;5011532;28;20479;-77
2021/07/10 04:06:13;;;;;;;2.65;0.60;;;20.80;89.60;;;;;;5012987;28;20041;-78
2021/07/10 04:08:39;;;;;;;1.27;0.68;;;20.80;89.90;;;;;;5012869;28;20034;-78
2021/07/10 04:11:07;;;;;;;0.57;0.57;;;20.90;89.40;;;;;;5011541;28;20026;-77
2021/07/10 04:13:33;;;;;;;0.73;0.73;;;20.90;89.30;;;;;;5013064;28;20022;-77
2021/07/10 04:16:00;;;;;;;0.70;0.50;;;20.90;89.60;;;;;;5012831;28;20555;-77
2021/07/10 04:18:27;;;;;;;0.60;0.60;;;21.00;89.20;;;;;;5012801;28;20042;-77
2021/07/10 04:20:53;;;;;;;0.65;0.52;;;21.00;89.00;;;;;;5011353;28;20432;-77
2021/07/10 04:23:19;;;;;;;0.98;0.65;;;21.00;89.10;;;;;;5012723;28;20117;-77
2021/07/10 04:25:44;;;;;;;1.17;0.40;;;21.00;88.80;;;;;;5012947;28;20053;-77
2021/07/10 04:28:10;;;;;;;0.50;0.50;;;20.90;89.30;;;;;;5012786;28;20061;-77
2021/07/10 04:30:36;;;;;;;1.60;0.70;;;20.90;89.80;;;;;;5012565;28;20061;-77
2021/07/10 04:33:02;;;;;;;0.50;0.50;;;20.90;90.10;;;;;;5013931;28;20037;-77
2021/07/10 04:35:28;;;;;;;0.65;0.52;;;21.00;90.00;;;;;;5016325;28;20029;-77
2021/07/10 04:37:54;;;;;;;2.05;0.70;;;21.00;89.90;;;;;;5014897;28;20109;-77
2021/07/10 04:40:20;;;;;;;3.83;0.80;;;21.00;90.00;;;;;;5015905;28;20072;-77
2021/07/10 04:42:46;;;;;;;2.38;0.52;;;21.00;90.00;;;;;;5016393;28;20441;-77
2021/07/10 04:45:13;;;;;;;0.68;0.68;;;21.10;90.00;;;;;;5014791;28;20407;-78
2021/07/10 04:47:39;;;;;;;0.73;0.60;;;21.10;90.20;;;;;;5016902;28;20022;-77
2021/07/10 04:50:06;;;;;;;0.55;0.55;;;21.00;90.40;;;;;;5034257;28;20044;-77
2021/07/10 04:52:32;;;;;;;2.88;0.77;;;21.10;90.20;;;;;;5035719;28;20029;-77
2021/07/10 04:54:57;;;;;;;0.60;0.60;;;21.10;90.30;;;;;;5034519;28;20112;-77
2021/07/10 04:57:23;;;;;;;4.72;0.60;;;21.10;90.50;;;;;;5035512;28;20095;-77
2021/07/10 04:59:49;;;;;;;0.40;0.40;;;21.10;90.60;;;;;;5034345;28;20018;-77
2021/07/10 05:02:14;;;;;;;0.65;0.65;;;21.20;90.60;;;;;;5035682;28;20099;-77
2021/07/10 05:04:40;;;;;;;0.50;0.50;;;21.20;90.40;;;;;;5035607;28;20017;-77
2021/07/10 05:07:06;;;;;;;0.47;0.47;;;21.30;90.40;;;;;;5035399;28;20394;-77
2021/07/10 05:09:32;;;;;;;0.80;0.80;;;21.30;90.30;;;;;;5034158;28;20491;-77
2021/07/10 05:11:58;;;;;;;0.65;0.65;;;21.40;90.20;;;;;;5024413;28;20057;-76
2021/07/10 05:14:24;;;;;;;1.02;0.60;;;21.40;90.30;;;;;;5014191;28;20384;-77
2021/07/10 05:16:50;;;;;;;1.83;0.80;;;21.50;90.40;;;;;;5014489;28;20022;-77
2021/07/10 05:19:16;;;;;;;0.65;0.65;;;21.50;90.40;;;;;;5014194;28;20022;-77
2021/07/10 05:21:42;;;;;;;0.50;0.50;;;21.50;90.60;;;;;;5015667;28;20022;-76
2021/07/10 05:24:08;;;;;;;0.60;0.60;;;21.60;90.70;;;;;;5014082;28;20029;-78
2021/07/10 05:26:34;;;;;;;0.95;0.50;;;21.60;90.80;;;;;;5015171;28;20091;-77
2021/07/10 05:29:00;;;;;;;3.33;0.60;;;21.70;91.10;;;;;;5014699;28;20018;-77
2021/07/10 05:31:26;;;;;;;2.13;0.60;;;21.70;91.10;;;;;;5012295;28;20034;-77
2021/07/10 05:33:52;;;;;;;1.05;0.60;;;21.90;91.20;;;;;;5015028;28;20018;-77
2021/07/10 05:36:18;;;;;;;2.50;0.52;;;21.90;91.00;;;;;;5014744;28;20075;-77
2021/07/10 05:38:44;;;;;;;0.55;0.55;;;21.90;90.90;;;;;;5015000;28;20097;-77
2021/07/10 05:41:10;;;;;;;0.63;0.60;;;22.00;90.70;;;;;;5013302;28;20395;-77
2021/07/10 05:43:36;;;;;;;0.55;0.55;;;22.00;90.80;;;;;;5014482;28;20018;-77
2021/07/10 05:46:02;;;;;;;1.50;0.95;;;22.00;91.40;;;;;;5014343;28;20033;-77
2021/07/10 05:48:27;;;;;;;0.98;0.60;;;22.10;91.30;;;;;;5013341;28;20025;-77
2021/07/10 05:50:53;;;;;;;0.40;0.40;;;22.10;91.40;;;;;;5012092;28;20050;-77
2021/07/10 05:53:19;;;;;;;0.85;0.73;;;22.20;91.80;;;;;;4995221;28;20018;-77
2021/07/10 05:55:46;;;;;;;3.20;0.47;;;22.10;91.90;;;;;;5001135;28;20053;-78
2021/07/10 05:58:13;;;;;;;0.70;0.70;;;22.10;92.60;;;;;;5013269;28;20046;-77
2021/07/10 06:00:39;;;;;;;1.35;0.70;;;22.20;92.40;;;;;;5013317;28;20439;-77
2021/07/10 06:03:05;;;;;;;2.05;0.73;;;22.20;92.70;;;;;;5013381;28;20065;-77
2021/07/10 06:05:31;;;;;;;0.60;0.60;;;22.30;92.30;;;;;;5014622;28;20045;-78
2021/07/10 06:07:57;;;;;;;0.60;0.60;;;22.40;91.70;;;;;;5007187;28;20073;-77
2021/07/10 06:10:23;;;;;;;1.65;0.60;;;22.50;91.80;;;;;;4995079;28;20026;-77
2021/07/10 06:12:50;;;;;;;0.43;0.43;;;22.60;91.50;;;;;;4993633;28;20068;-78
2021/07/10 06:15:16;;;;;;;0.63;0.63;;;22.60;91.20;;;;;;4995163;28;20081;-78
2021/07/10 06:17:43;;;;;;;2.15;0.63;;;22.70;91.10;;;;;;4993777;28;20058;-77
2021/07/10 06:20:11;;;;;;;2.80;0.70;;;22.80;91.40;;;;;;4995039;28;20026;-78
2021/07/10 06:22:37;;;;;;;1.58;0.85;;;22.90;91.50;;;;;;4994974;28;20076;-78
2021/07/10 06:25:08;;;;;;;1.48;0.90;;;22.90;91.90;;;;;;4994627;28;20040;-78
2021/07/10 06:27:34;;;;;;;0.53;0.53;;;23.00;92.00;;;;;;4994564;28;20038;-78
2021/07/10 06:30:00;;;;;;;0.70;0.70;;;23.00;91.80;;;;;;4993315;28;20080;-78
2021/07/10 06:32:26;;;;;;;0.70;0.70;;;23.10;91.10;;;;;;4994396;28;20106;-78
2021/07/10 06:34:51;;;;;;;0.80;0.80;;;23.10;90.90;;;;;;4993119;28;20033;-77
2021/07/10 06:37:18;;;;;;;0.68;0.50;;;23.20;91.10;;;;;;4992969;28;20488;-77
2021/07/10 06:39:43;;;;;;;1.25;1.15;;;23.20;91.50;;;;;;4994341;28;20034;-77
2021/07/10 06:42:09;;;;;;;2.20;0.70;;;23.30;91.80;;;;;;5012409;28;20025;-78
2021/07/10 06:44:35;;;;;;;5.10;0.95;;;23.30;91.70;;;;;;5033635;28;20522;-78
2021/07/10 06:47:00;;;;;;;0.80;0.70;;;23.40;91.40;;;;;;5033537;28;20026;-78
2021/07/10 06:49:26;;;;;;;0.90;0.90;;;23.40;91.60;;;;;;5006630;28;20563;-78
2021/07/10 06:51:52;;;;;;;0.80;0.80;;;23.50;91.80;;;;;;5010705;28;20040;-78
2021/07/10 06:54:18;;;;;;;1.52;0.90;;;23.50;92.10;;;;;;5013756;28;20029;-78
2021/07/10 06:56:43;;;;;;;1.33;0.90;;;23.60;91.90;;;;;;5013600;28;20018;-78
2021/07/10 06:59:11;;;;;;;1.35;1.00;;;23.70;92.00;;;;;;5013450;28;20486;-78
2021/07/10 07:01:37;;;;;;;1.63;0.98;;;23.70;92.20;;;;;;5013193;28;20056;-77
2021/07/10 07:04:03;;;;;;;3.35;0.90;;;23.80;92.20;;;;;;5013408;28;20339;-78
2021/07/10 07:06:29;;;;;;;1.30;1.20;;;23.90;92.00;;;;;;5013657;28;20045;-78
2021/07/10 07:08:55;;;;;;;1.15;1.05;;;23.90;91.30;;;;;;5013274;28;20574;-78
2021/07/10 07:11:21;;;;;;;13.82;1.35;;;23.90;90.40;;;;;;5011852;28;20133;-78
2021/07/10 07:13:46;;;;;;;3.13;1.15;;;24.00;90.90;;;;;;5012019;28;20033;-77
2021/07/10 07:16:12;;;;;;;1.10;1.10;;;24.00;90.20;;;;;;5013338;28;20018;-78
2021/07/10 07:18:38;;;;;;;4.55;1.13;;;24.10;90.00;;;;;;5013102;28;20017;-77
2021/07/10 07:21:05;;;;;;;3.42;1.02;;;24.20;90.70;;;;;;5012079;28;20030;-78
2021/07/10 07:23:30;;;;;;;1.77;0.90;;;24.20;90.90;;;;;;5010376;28;20049;-78
2021/07/10 07:25:56;;;;;;;1.67;1.05;;;24.20;91.60;;;;;;4997993;28;20034;-77
2021/07/10 07:28:22;;;;;;;1.23;0.80;;;24.20;91.30;;;;;;5000446;28;20066;-78
2021/07/10 07:30:47;;;;;;;2.38;0.82;;;24.30;90.90;;;;;;5008869;28;20088;-78
2021/07/10 07:58:08;;;;;;;1.95;1.85;;;24.60;89.60;;;;;;5121454;27;20424;-77
2021/07/10 08:00:34;;;;;;;3.30;2.85;;;25.20;90.10;;;;;;5114486;28;20423;-77
2021/07/10 08:03:00;;;;;;;3.45;1.83;;;25.20;89.70;;;;;;5128781;27;20077;-77
2021/07/10 08:05:26;;;;;;;1.90;1.77;;;25.30;91.10;;;;;;5127627;27;20032;-77
2021/07/10 08:07:52;;;;;;;2.25;1.83;;;25.30;90.50;;;;;;5118501;27;20019;-77
2021/07/10 08:10:18;;;;;;;1.75;1.65;;;25.30;90.40;;;;;;5111197;27;20024;-77
2021/07/10 08:12:49;;;;;;;3.45;1.67;;;25.30;90.70;;;;;;5122750;28;20023;-77
2021/07/10 08:15:20;;;;;;;4.20;2.28;;;25.30;91.10;;;;;;5121414;27;20015;-76
2021/07/10 08:17:48;;;;;;;1.80;1.70;;;25.40;90.80;;;;;;5121159;28;20611;-77
2021/07/10 08:20:15;;;;;;;2.30;2.20;;;25.40;91.20;;;;;;5110298;28;20454;-76
2021/07/10 08:22:42;;;;;;;3.20;2.90;;;25.50;91.00;;;;;;5115189;28;20018;-77
2021/07/10 08:25:10;;;;;;;3.28;3.08;;;25.50;91.00;;;;;;5125142;28;20020;-76
2021/07/10 08:27:45;;;;;;;2.75;2.42;;;25.50;91.40;;;;;;5123007;27;20107;-76
2021/07/10 08:30:13;;;;;;;4.03;2.80;;;25.60;91.60;;;;;;5106105;28;20048;-77
2021/07/10 08:32:39;;;;;;;5.00;3.22;;;25.80;92.10;;;;;;5124341;27;20023;-77
2021/07/10 08:35:06;;;;;;;4.28;2.90;;;25.80;91.50;;;;;;5108947;27;20031;-76
2021/07/10 08:37:32;;;;;;;2.83;2.63;;;25.80;91.40;;;;;;5119835;27;20031;-76
2021/07/10 08:39:58;;;;;;;4.03;3.28;;;25.90;91.80;;;;;;5115034;28;20512;-77
2021/07/10 08:42:24;;;;;;;4.82;3.20;;;26.00;91.20;;;;;;5125924;27;20032;-78
2021/07/10 08:44:53;;;;;;;5.63;3.60;;;26.00;91.10;;;;;;5107571;28;20024;-78
2021/07/10 08:47:19;;;;;;;3.45;3.15;;;25.90;91.40;;;;;;5116714;28;20504;-78
2021/07/10 08:49:46;;;;;;;2.85;2.55;;;25.90;92.10;;;;;;5129752;27;20019;-77
2021/07/10 08:52:12;;;;;;;3.60;3.30;;;25.90;93.50;;;;;;5120393;27;20020;-77
2021/07/10 08:54:38;;;;;;;2.80;2.42;;;26.00;92.30;;;;;;5120202;28;20099;-77
2021/07/10 08:57:05;;;;;;;2.90;2.70;;;26.10;94.50;;;;;;5114422;27;20055;-77
2021/07/10 08:59:34;;;;;;;3.88;3.03;;;26.20;92.50;;;;;;5098532;28;20093;-77
2021/07/10 09:02:00;;;;;;;3.70;3.00;;;26.30;91.70;;;;;;5097684;28;20035;-77
2021/07/10 09:04:26;;;;;;;2.58;2.47;;;26.40;91.40;;;;;;5097292;28;20505;-77
2021/07/10 09:06:51;;;;;;;2.38;2.28;;;26.50;93.20;;;;;;5111332;28;20020;-76
2021/07/10 09:09:18;;;;;;;2.95;2.70;;;26.70;93.00;;;;;;5111950;28;20024;-77
2021/07/10 09:12:06;;;;;;;2.42;2.22;;;26.90;91.10;;;;;;5112368;28;20023;-77
2021/07/10 09:14:32;;;;;;;2.20;2.10;;;26.90;91.40;;;;;;5101332;27;20551;-76
2021/07/10 09:17:27;;;;;;;2.95;2.20;;;26.90;90.10;;;;;;5112278;28;20032;-76
2021/07/10 09:19:54;;;;;;;2.85;2.65;;;27.10;91.40;;;;;;5105345;28;20047;-76
2021/07/10 09:22:30;;;;;;;2.00;1.85;;;27.20;91.00;;;;;;5106852;28;20023;-76
2021/07/10 09:24:57;;;;;;;4.80;2.63;;;27.30;90.70;;;;;;5089862;28;20024;-77
2021/07/10 09:27:23;;;;;;;4.28;2.58;;;27.30;91.00;;;;;;5101705;28;20076;-75
2021/07/10 09:29:49;;;;;;;2.55;2.38;;;27.20;90.10;;;;;;5109187;28;20486;-76
2021/07/10 09:32:21;;;;;;;2.17;2.00;;;27.20;90.00;;;;;;5097163;28;20375;-76
2021/07/10 09:34:50;;;;;;;2.30;2.10;;;27.10;90.90;;;;;;5103386;28;20018;-76
2021/07/10 09:37:23;;;;;;;2.05;1.95;;;27.00;90.90;;;;;;5111544;28;20555;-77
2021/07/10 09:39:59;;;;;;;2.40;2.30;;;26.90;90.70;;;;;;5107228;28;20028;-76
2021/07/10 09:42:47;;;;;;;2.20;2.10;;;27.00;89.10;;;;;;5094194;28;20081;-76
2021/07/10 09:45:23;;;;;;;2.47;2.28;;;27.10;90.70;;;;;;5100030;28;20020;-76
2021/07/10 09:47:49;;;;;;;2.20;2.10;;;27.20;89.80;;;;;;5104642;28;20088;-75
2021/07/10 09:50:21;;;;;;;3.72;2.30;;;27.30;90.10;;;;;;5102115;28;20084;-76
2021/07/10 09:52:47;;;;;;;;;;;27.40;88.40;;;;;;5102884;28;20031;-77
2021/07/10 09:55:14;;;;;;;2.58;2.17;;;27.60;90.30;;;;;;5109365;28;19930;-77
2021/07/10 09:57:42;;;;;;;2.67;2.47;;;27.50;88.70;;;;;;5094766;28;20742;-76
2021/07/10 10:00:08;;;;;;;5.20;2.45;;;27.60;89.60;;;;;;5094148;28;20028;-77
2021/07/10 10:02:47;;;;;;;2.95;2.30;;;27.80;90.00;;;;;;5095454;28;20049;-76
2021/07/10 10:05:34;;;;;;;2.58;2.38;;;27.90;89.20;;;;;;5096632;28;20036;-76
2021/07/10 10:08:02;;;;;;;2.70;2.50;;;27.90;88.80;;;;;;5090172;28;20047;-76
2021/07/10 10:10:39;;;;;;;2.53;2.33;;;28.00;86.10;;;;;;5101231;28;20096;-76
2021/07/10 10:13:05;;;;;;;2.45;1.80;;;27.90;85.90;;;;;;5107608;28;20019;-76
2021/07/10 10:15:36;;;;;;;2.28;2.17;;;28.00;86.50;;;;;;5112417;27;20022;-77
2021/07/10 10:18:05;;;;;;;2.88;2.15;;;28.00;86.80;;;;;;5108871;28;20024;-76
2021/07/10 10:20:32;;;;;;;2.35;2.17;;;28.10;86.40;;;;;;5091689;28;20482;-76
2021/07/10 10:23:00;;;;;;;3.33;2.08;;;28.10;85.00;;;;;;5088026;28;20028;-76
2021/07/10 10:25:34;;;;;;;3.83;2.10;;;28.10;83.40;;;;;;5090594;28;20031;-76
2021/07/10 10:28:07;;;;;;;2.17;2.08;;;28.10;87.60;;;;;;5089964;28;20016;-76
2021/07/10 10:30:33;;;;;;;3.55;2.20;;;28.30;86.20;;;;;;5098140;28;20073;-76
2021/07/10 10:33:04;;;;;;;1.88;1.77;;;28.40;86.80;;;;;;5089425;28;20103;-76
2021/07/10 10:35:32;;;;;;;5.20;2.30;;;28.60;83.90;;;;;;5103513;28;20024;-76
2021/07/10 10:38:04;;;;;;;2.20;2.10;;;28.70;85.10;;;;;;5103625;28;20013;-76
2021/07/10 10:40:34;;;;;;;1.73;1.63;;;28.70;85.20;;;;;;5099969;28;20032;-76
2021/07/10 10:43:02;;;;;;;2.28;2.08;;;28.80;81.10;;;;;;5108105;28;20061;-77
2021/07/10 10:45:37;;;;;;;2.80;1.73;;;28.90;80.60;;;;;;5111126;28;20027;-77
2021/07/10 10:48:05;;;;;;;1.83;1.73;;;29.00;79.80;;;;;;5107168;28;20111;-76
2021/07/10 10:50:37;;;;;;;2.88;2.05;;;29.10;78.20;;;;;;5110442;28;20030;-76
2021/07/10 10:53:23;;;;;;;2.05;1.90;;;29.20;79.00;;;;;;5108864;28;20070;-76
2021/07/10 10:55:52;;;;;;;1.70;1.60;;;29.30;81.10;;;;;;5106354;28;20035;-76
2021/07/10 10:58:29;;;;;;;2.05;1.90;;;29.30;75.70;;;;;;5108480;28;20489;-76
2021/07/10 11:01:07;;;;;;;2.47;2.10;;;29.30;75.80;;;;;;5104085;28;20031;-76
2021/07/10 11:03:42;;;;;;;3.92;2.40;;;29.20;76.30;;;;;;5109993;28;20042;-76
2021/07/10 11:06:33;;;;;;;1.88;1.75;;;29.30;76.20;;;;;;5112065;28;20118;-76
2021/07/10 11:09:02;;;;;;;1.50;1.50;;;29.10;76.20;;;;;;5111873;28;20126;-76
2021/07/10 11:11:32;;;;;;;1.77;1.65;;;29.10;77.20;;;;;;5111852;28;20031;-76
2021/07/10 11:14:27;;;;;;;2.25;2.00;;;29.20;79.30;;;;;;5093387;28;20437;-76
2021/07/10 11:17:07;;;;;;;3.35;1.70;;;29.40;75.80;;;;;;5102362;28;20020;-76
2021/07/10 11:19:48;;;;;;;1.92;1.83;;;29.50;78.80;;;;;;5113363;28;20027;-76
2021/07/10 11:22:54;;;;;;;1.70;1.60;;;29.80;76.70;;;;;;5108015;28;20077;-76
2021/07/10 11:25:45;;;;;;;1.40;1.40;;;30.00;77.70;;;;;;5094854;28;20016;-76
2021/07/10 11:28:30;;;;;;;2.28;1.63;;;29.90;73.60;;;;;;5093567;28;20019;-76
2021/07/10 11:30:58;;;;;;;2.10;2.00;;;29.70;72.30;;;;;;5104594;28;20100;-75
2021/07/10 11:34:05;;;;;;;5.22;1.60;;;29.60;73.30;;;;;;5102947;28;20125;-76
2021/07/10 11:36:34;;;;;;;1.88;1.85;;;29.80;72.30;;;;;;5111453;28;20027;-76
2021/07/10 11:39:00;;;;;;;1.60;1.60;;;29.80;72.50;;;;;;5111531;28;20543;-76
2021/07/10 11:41:34;;;;;;;2.13;1.70;;;29.60;71.30;;;;;;5106257;28;20008;-76
2021/07/10 11:44:24;;;;;;;2.70;1.45;;;29.50;72.60;;;;;;5102166;28;20019;-76
2021/07/10 11:46:55;;;;;;;1.55;1.55;;;29.70;73.30;;;;;;5110450;28;20032;-76
2021/07/10 11:49:57;;;;;;;1.60;1.50;;;29.90;73.00;;;;;;5095373;28;20042;-75
2021/07/10 11:52:28;;;;;;;1.60;1.50;;;29.90;66.20;;;;;;5099286;28;20031;-76
2021/07/10 11:54:57;;;;;;;5.73;1.90;;;30.00;66.70;;;;;;5108572;28;20106;-76
2021/07/10 11:57:24;;;;;;;1.90;1.80;;;30.00;71.30;;;;;;5110259;28;20554;-76
2021/07/10 11:59:57;;;;;;;5.28;2.10;;;30.20;70.90;;;;;;5101590;28;20133;-76
2021/07/10 12:02:33;;;;;;;1.65;1.55;;;30.40;73.10;;;;;;5095264;28;20482;-76
2021/07/10 12:05:36;;;;;;;3.45;1.63;;;30.70;73.00;;;;;;5106912;28;20076;-76
2021/07/10 12:08:04;;;;;;;1.92;1.80;;;30.60;68.60;;;;;;5096564;28;20028;-76
2021/07/10 12:10:40;;;;;;;1.80;1.70;;;30.70;71.70;;;;;;5101510;28;20020;-75
2021/07/10 12:13:15;;;;;;;1.80;1.70;;;30.90;70.40;;;;;;5088622;28;20473;-76
2021/07/10 12:15:50;;;;;;;1.88;1.50;;;31.00;69.50;;;;;;5088680;28;20032;-76
2021/07/10 12:18:18;;;;;;;1.63;1.52;;;31.00;68.40;;;;;;5089179;28;20020;-77
2021/07/10 12:20:53;;;;;;;1.58;1.48;;;31.20;67.00;;;;;;5089205;28;20024;-77
2021/07/10 12:23:27;;;;;;;1.70;1.60;;;31.20;65.70;;;;;;5107259;28;20023;-76
2021/07/10 12:26:20;;;;;;;2.90;2.15;;;31.20;63.10;;;;;;5091180;28;20483;-77
2021/07/10 12:28:49;;;;;;;1.60;1.50;;;31.20;65.90;;;;;;5085779;28;20051;-77
2021/07/10 12:31:26;;;;;;;1.70;1.60;;;31.30;65.00;;;;;;5088143;28;20082;-77
2021/07/10 12:34:13;;;;;;;1.40;1.40;;;31.30;62.70;;;;;;5089247;28;20048;-77
2021/07/10 12:36:44;;;;;;;2.08;1.98;;;31.30;64.50;;;;;;5094382;28;20035;-76
2021/07/10 12:39:24;;;;;;;1.83;1.73;;;31.40;66.30;;;;;;5111883;28;20378;-77
2021/07/10 12:42:04;;;;;;;1.77;1.67;;;31.50;66.60;;;;;;5113810;28;20020;-77
2021/07/10 12:44:40;;;;;;;1.80;1.70;;;31.70;64.60;;;;;;5099434;28;20023;-77
2021/07/10 12:47:09;;;;;;;1.90;1.80;;;31.60;64.80;;;;;;5103600;28;20054;-77
2021/07/10 12:49:39;;;;;;;3.50;1.90;;;31.60;64.40;;;;;;5111326;28;20122;-77
2021/07/10 12:52:27;;;;;;;1.77;1.67;;;31.50;61.80;;;;;;5111793;28;20031;-77
2021/07/10 12:55:15;;;;;;;4.60;1.92;;;31.40;60.00;;;;;;5110321;28;20087;-77
2021/07/10 12:57:53;;;;;;;5.72;1.80;;;31.50;64.20;;;;;;5112872;28;20100;-77
2021/07/10 13:00:21;;;;;;;2.05;1.65;;;31.60;62.40;;;;;;5113388;28;20022;-77
2021/07/10 13:02:59;;;;;;;1.60;1.50;;;31.70;63.30;;;;;;5111973;28;20446;-77
2021/07/10 13:05:36;;;;;;;1.65;1.55;;;31.90;61.30;;;;;;5113178;28;20050;-76
2021/07/10 13:08:07;;;;;;;4.32;2.83;;;32.00;61.50;;;;;;5111941;28;20046;-76
2021/07/10 13:10:34;;;;;;;2.08;1.70;;;32.10;61.80;;;;;;5213374;22;20068;-76
2021/07/10 13:13:26;;;;;;;3.10;1.42;;;32.20;60.10;;;;;;5034254;28;20446;-76
2021/07/10 13:15:57;;;;;;;1.58;1.55;;;32.20;58.80;;;;;;5036357;28;20043;-76
2021/07/10 13:18:31;;;;;;;1.90;1.60;;;32.20;59.10;;;;;;5052393;28;20119;-76
2021/07/10 13:21:04;;;;;;;1.67;1.58;;;32.10;60.40;;;;;;5053743;28;20423;-76
2021/07/10 13:23:31;;;;;;;1.80;1.70;;;32.20;58.40;;;;;;5031419;28;20045;-76
2021/07/10 13:25:58;;;;;;;1.70;1.60;;;32.40;60.30;;;;;;5032233;28;20080;-76